sensor_id;sensor_type;location;lat;lon;timestamp;P1;durP1;ratioP1;P2;durP2;ratioP2
13816;SDS011;6979;52.116;5.286;2023-12-20T00:02:26;7.00;;;2.20;;
13816;SDS011;6979;52.116;5.286;2023-12-20T00:04:52;4.53;;;2.30;;
13816;SDS011;6979;52.116;5.286;2023-12-20T00:07:21;8.90;;;2.87;;
13816;SDS011;6979;52.116;5.286;2023-12-20T00:09:48;6.03;;;2.47;;
13816;SDS011;6979;52.116;5.286;2023-12-20T00:12:16;5.73;;;1.97;;
13816;SDS011;6979;52.116;5.286;2023-12-20T00:14:43;8.10;;;2.63;;
13816;SDS011;6979;52.116;5.286;2023-12-20T00:17:13;5.27;;;2.13;;
13816;SDS011;6979;52.116;5.286;2023-12-20T00:19:40;4.70;;;2.10;;
13816;SDS011;6979;52.116;5.286;2023-12-20T00:22:06;5.80;;;1.80;;
13816;SDS011;6979;52.116;5.286;2023-12-20T00:24:35;6.50;;;2.10;;
13816;SDS011;6979;52.116;5.286;2023-12-20T00:27:01;6.37;;;2.30;;
13816;SDS011;6979;52.116;5.286;2023-12-20T00:29:28;4.57;;;1.60;;
13816;SDS011;6979;52.116;5.286;2023-12-20T00:31:55;7.37;;;2.70;;
13816;SDS011;6979;52.116;5.286;2023-12-20T00:34:22;6.27;;;2.70;;
13816;SDS011;6979;52.116;5.286;2023-12-20T00:36:49;6.67;;;1.97;;
13816;SDS011;6979;52.116;5.286;2023-12-20T00:39:16;7.53;;;2.60;;
13816;SDS011;6979;52.116;5.286;2023-12-20T00:41:46;3.03;;;1.53;;
13816;SDS011;6979;52.116;5.286;2023-12-20T00:44:13;6.00;;;1.93;;
13816;SDS011;6979;52.116;5.286;2023-12-20T00:46:40;4.60;;;2.03;;
13816;SDS011;6979;52.116;5.286;2023-12-20T00:49:07;4.50;;;2.03;;
13816;SDS011;6979;52.116;5.286;2023-12-20T00:51:34;4.67;;;1.63;;
13816;SDS011;6979;52.116;5.286;2023-12-20T00:54:01;4.97;;;2.30;;
13816;SDS011;6979;52.116;5.286;2023-12-20T00:56:28;5.87;;;2.23;;
13816;SDS011;6979;52.116;5.286;2023-12-20T00:58:56;5.53;;;2.40;;
13816;SDS011;6979;52.116;5.286;2023-12-20T01:01:23;3.57;;;2.13;;
13816;SDS011;6979;52.116;5.286;2023-12-20T01:03:50;5.33;;;2.67;;
13816;SDS011;6979;52.116;5.286;2023-12-20T01:06:18;6.53;;;2.70;;
13816;SDS011;6979;52.116;5.286;2023-12-20T01:08:45;6.37;;;2.40;;
13816;SDS011;6979;52.116;5.286;2023-12-20T01:11:11;5.37;;;2.20;;
13816;SDS011;6979;52.116;5.286;2023-12-20T01:13:41;8.83;;;2.43;;
13816;SDS011;6979;52.116;5.286;2023-12-20T01:16:12;7.20;;;2.20;;
13816;SDS011;6979;52.116;5.286;2023-12-20T01:18:39;5.40;;;2.20;;
13816;SDS011;6979;52.116;5.286;2023-12-20T01:21:06;6.77;;;1.93;;
13816;SDS011;6979;52.116;5.286;2023-12-20T01:23:33;8.93;;;2.90;;
13816;SDS011;6979;52.116;5.286;2023-12-20T01:26:00;7.47;;;2.77;;
13816;SDS011;6979;52.116;5.286;2023-12-20T01:28:27;4.23;;;2.00;;
13816;SDS011;6979;52.116;5.286;2023-12-20T01:30:54;7.17;;;3.03;;
13816;SDS011;6979;52.116;5.286;2023-12-20T01:33:23;5.47;;;2.27;;
13816;SDS011;6979;52.116;5.286;2023-12-20T01:35:50;6.97;;;2.30;;
13816;SDS011;6979;52.116;5.286;2023-12-20T01:38:16;7.83;;;2.37;;
13816;SDS011;6979;52.116;5.286;2023-12-20T01:40:45;5.33;;;2.30;;
13816;SDS011;6979;52.116;5.286;2023-12-20T01:43:12;6.47;;;2.33;;
13816;SDS011;6979;52.116;5.286;2023-12-20T01:45:39;6.53;;;2.50;;
13816;SDS011;6979;52.116;5.286;2023-12-20T01:48:10;8.87;;;2.83;;
13816;SDS011;6979;52.116;5.286;2023-12-20T01:50:42;6.47;;;2.67;;
13816;SDS011;6979;52.116;5.286;2023-12-20T01:53:10;6.93;;;2.87;;
13816;SDS011;6979;52.116;5.286;2023-12-20T01:55:38;9.40;;;2.80;;
13816;SDS011;6979;52.116;5.286;2023-12-20T01:58:07;11.43;;;3.83;;
13816;SDS011;6979;52.116;5.286;2023-12-20T02:00:35;8.30;;;2.73;;
13816;SDS011;6979;52.116;5.286;2023-12-20T02:03:04;8.77;;;2.83;;
13816;SDS011;6979;52.116;5.286;2023-12-20T02:05:32;6.20;;;2.77;;
13816;SDS011;6979;52.116;5.286;2023-12-20T02:08:01;8.03;;;2.97;;
13816;SDS011;6979;52.116;5.286;2023-12-20T02:10:27;5.70;;;2.63;;
13816;SDS011;6979;52.116;5.286;2023-12-20T02:12:55;7.03;;;2.60;;
13816;SDS011;6979;52.116;5.286;2023-12-20T02:15:22;7.57;;;2.43;;
13816;SDS011;6979;52.116;5.286;2023-12-20T02:17:49;11.90;;;3.43;;
13816;SDS011;6979;52.116;5.286;2023-12-20T02:20:16;8.47;;;3.53;;
13816;SDS011;6979;52.116;5.286;2023-12-20T02:22:44;8.53;;;3.00;;
13816;SDS011;6979;52.116;5.286;2023-12-20T02:25:10;6.63;;;3.40;;
13816;SDS011;6979;52.116;5.286;2023-12-20T02:27:37;8.20;;;3.27;;
13816;SDS011;6979;52.116;5.286;2023-12-20T02:30:05;10.03;;;3.10;;
13816;SDS011;6979;52.116;5.286;2023-12-20T02:32:33;10.90;;;3.47;;
13816;SDS011;6979;52.116;5.286;2023-12-20T02:35:00;9.53;;;3.40;;
13816;SDS011;6979;52.116;5.286;2023-12-20T02:37:26;8.50;;;3.53;;
13816;SDS011;6979;52.116;5.286;2023-12-20T02:39:55;10.93;;;3.57;;
13816;SDS011;6979;52.116;5.286;2023-12-20T02:42:24;14.80;;;4.40;;
13816;SDS011;6979;52.116;5.286;2023-12-20T02:44:51;12.63;;;3.03;;
13816;SDS011;6979;52.116;5.286;2023-12-20T02:47:20;13.80;;;4.33;;
13816;SDS011;6979;52.116;5.286;2023-12-20T02:49:47;14.57;;;4.30;;
13816;SDS011;6979;52.116;5.286;2023-12-20T02:52:15;8.27;;;3.40;;
13816;SDS011;6979;52.116;5.286;2023-12-20T02:54:41;11.83;;;3.37;;
13816;SDS011;6979;52.116;5.286;2023-12-20T02:57:10;9.00;;;3.67;;
13816;SDS011;6979;52.116;5.286;2023-12-20T02:59:37;11.30;;;3.43;;
13816;SDS011;6979;52.116;5.286;2023-12-20T03:02:05;8.70;;;3.77;;
13816;SDS011;6979;52.116;5.286;2023-12-20T03:04:32;12.37;;;3.43;;
13816;SDS011;6979;52.116;5.286;2023-12-20T03:06:59;8.33;;;3.47;;
13816;SDS011;6979;52.116;5.286;2023-12-20T03:09:26;8.27;;;3.60;;
13816;SDS011;6979;52.116;5.286;2023-12-20T03:11:53;11.47;;;3.50;;
13816;SDS011;6979;52.116;5.286;2023-12-20T03:14:21;11.80;;;4.20;;
13816;SDS011;6979;52.116;5.286;2023-12-20T03:16:50;13.83;;;4.40;;
13816;SDS011;6979;52.116;5.286;2023-12-20T03:19:19;14.90;;;4.30;;
13816;SDS011;6979;52.116;5.286;2023-12-20T03:21:46;9.33;;;3.40;;
13816;SDS011;6979;52.116;5.286;2023-12-20T03:24:13;13.67;;;4.10;;
13816;SDS011;6979;52.116;5.286;2023-12-20T03:26:40;8.27;;;3.70;;
13816;SDS011;6979;52.116;5.286;2023-12-20T03:29:06;16.67;;;3.77;;
13816;SDS011;6979;52.116;5.286;2023-12-20T03:31:35;13.87;;;3.57;;
13816;SDS011;6979;52.116;5.286;2023-12-20T03:34:02;15.23;;;4.20;;
13816;SDS011;6979;52.116;5.286;2023-12-20T03:36:29;6.83;;;3.23;;
13816;SDS011;6979;52.116;5.286;2023-12-20T03:38:55;11.73;;;3.50;;
13816;SDS011;6979;52.116;5.286;2023-12-20T03:41:22;8.93;;;3.37;;
13816;SDS011;6979;52.116;5.286;2023-12-20T03:43:49;15.90;;;4.13;;
13816;SDS011;6979;52.116;5.286;2023-12-20T03:46:16;10.90;;;3.73;;
13816;SDS011;6979;52.116;5.286;2023-12-20T03:48:53;8.73;;;3.27;;
13816;SDS011;6979;52.116;5.286;2023-12-20T03:51:20;9.13;;;3.50;;
13816;SDS011;6979;52.116;5.286;2023-12-20T03:53:47;12.93;;;3.77;;
13816;SDS011;6979;52.116;5.286;2023-12-20T03:56:14;9.20;;;3.23;;
13816;SDS011;6979;52.116;5.286;2023-12-20T03:58:41;13.13;;;4.10;;
13816;SDS011;6979;52.116;5.286;2023-12-20T04:01:09;14.10;;;3.67;;
13816;SDS011;6979;52.116;5.286;2023-12-20T04:03:39;5.93;;;2.67;;
13816;SDS011;6979;52.116;5.286;2023-12-20T04:06:09;11.57;;;3.80;;
13816;SDS011;6979;52.116;5.286;2023-12-20T04:08:36;9.70;;;4.27;;
13816;SDS011;6979;52.116;5.286;2023-12-20T04:11:03;12.17;;;3.63;;
13816;SDS011;6979;52.116;5.286;2023-12-20T04:13:30;11.20;;;3.77;;
13816;SDS011;6979;52.116;5.286;2023-12-20T04:15:56;12.03;;;3.57;;
13816;SDS011;6979;52.116;5.286;2023-12-20T04:18:23;11.03;;;3.83;;
13816;SDS011;6979;52.116;5.286;2023-12-20T04:20:51;10.60;;;3.97;;
13816;SDS011;6979;52.116;5.286;2023-12-20T04:23:19;12.83;;;3.60;;
13816;SDS011;6979;52.116;5.286;2023-12-20T04:25:46;12.20;;;4.10;;
13816;SDS011;6979;52.116;5.286;2023-12-20T04:28:13;8.63;;;3.77;;
13816;SDS011;6979;52.116;5.286;2023-12-20T04:30:40;8.90;;;3.37;;
13816;SDS011;6979;52.116;5.286;2023-12-20T04:33:08;12.17;;;4.40;;
13816;SDS011;6979;52.116;5.286;2023-12-20T04:35:38;9.33;;;3.87;;
13816;SDS011;6979;52.116;5.286;2023-12-20T04:38:06;12.63;;;3.90;;
13816;SDS011;6979;52.116;5.286;2023-12-20T04:40:34;13.27;;;3.50;;
13816;SDS011;6979;52.116;5.286;2023-12-20T04:43:01;12.03;;;3.17;;
13816;SDS011;6979;52.116;5.286;2023-12-20T04:45:28;9.67;;;3.47;;
13816;SDS011;6979;52.116;5.286;2023-12-20T04:47:55;16.50;;;4.00;;
13816;SDS011;6979;52.116;5.286;2023-12-20T04:50:22;10.00;;;3.97;;
13816;SDS011;6979;52.116;5.286;2023-12-20T04:52:48;12.87;;;4.20;;
13816;SDS011;6979;52.116;5.286;2023-12-20T04:55:19;13.30;;;3.77;;
13816;SDS011;6979;52.116;5.286;2023-12-20T04:57:47;9.20;;;3.83;;
13816;SDS011;6979;52.116;5.286;2023-12-20T05:00:17;14.67;;;4.93;;
13816;SDS011;6979;52.116;5.286;2023-12-20T05:02:44;15.30;;;4.80;;
13816;SDS011;6979;52.116;5.286;2023-12-20T05:05:11;13.03;;;4.97;;
13816;SDS011;6979;52.116;5.286;2023-12-20T05:07:39;10.87;;;5.23;;
13816;SDS011;6979;52.116;5.286;2023-12-20T05:10:06;9.67;;;3.53;;
13816;SDS011;6979;52.116;5.286;2023-12-20T05:12:34;12.67;;;4.13;;
13816;SDS011;6979;52.116;5.286;2023-12-20T05:15:03;10.73;;;4.03;;
13816;SDS011;6979;52.116;5.286;2023-12-20T05:17:31;13.20;;;3.70;;
13816;SDS011;6979;52.116;5.286;2023-12-20T05:19:58;15.23;;;5.33;;
13816;SDS011;6979;52.116;5.286;2023-12-20T05:22:27;13.93;;;4.70;;
13816;SDS011;6979;52.116;5.286;2023-12-20T05:24:56;9.20;;;3.57;;
13816;SDS011;6979;52.116;5.286;2023-12-20T05:27:23;12.47;;;3.67;;
13816;SDS011;6979;52.116;5.286;2023-12-20T05:29:49;9.87;;;3.80;;
13816;SDS011;6979;52.116;5.286;2023-12-20T05:32:19;16.83;;;5.13;;
13816;SDS011;6979;52.116;5.286;2023-12-20T05:34:46;13.57;;;3.70;;
13816;SDS011;6979;52.116;5.286;2023-12-20T05:37:12;10.60;;;4.17;;
13816;SDS011;6979;52.116;5.286;2023-12-20T05:39:42;13.77;;;4.23;;
13816;SDS011;6979;52.116;5.286;2023-12-20T05:42:08;5.20;;;3.50;;
13816;SDS011;6979;52.116;5.286;2023-12-20T05:44:35;13.03;;;3.53;;
13816;SDS011;6979;52.116;5.286;2023-12-20T05:47:05;12.20;;;4.30;;
13816;SDS011;6979;52.116;5.286;2023-12-20T05:49:34;11.67;;;3.93;;
13816;SDS011;6979;52.116;5.286;2023-12-20T05:52:01;8.50;;;3.83;;
13816;SDS011;6979;52.116;5.286;2023-12-20T05:54:28;14.17;;;4.30;;
13816;SDS011;6979;52.116;5.286;2023-12-20T05:56:55;15.67;;;5.53;;
13816;SDS011;6979;52.116;5.286;2023-12-20T05:59:22;10.30;;;3.83;;
13816;SDS011;6979;52.116;5.286;2023-12-20T06:01:49;10.87;;;3.30;;
13816;SDS011;6979;52.116;5.286;2023-12-20T06:04:15;14.67;;;3.73;;
13816;SDS011;6979;52.116;5.286;2023-12-20T06:06:44;11.10;;;4.03;;
13816;SDS011;6979;52.116;5.286;2023-12-20T06:09:11;11.67;;;4.70;;
13816;SDS011;6979;52.116;5.286;2023-12-20T06:11:38;14.23;;;4.30;;
13816;SDS011;6979;52.116;5.286;2023-12-20T06:14:05;12.13;;;4.37;;
13816;SDS011;6979;52.116;5.286;2023-12-20T06:16:31;11.63;;;4.43;;
13816;SDS011;6979;52.116;5.286;2023-12-20T06:18:58;10.90;;;3.60;;
13816;SDS011;6979;52.116;5.286;2023-12-20T06:21:25;8.87;;;3.17;;
13816;SDS011;6979;52.116;5.286;2023-12-20T06:23:58;7.43;;;3.23;;
13816;SDS011;6979;52.116;5.286;2023-12-20T06:26:25;13.67;;;4.10;;
13816;SDS011;6979;52.116;5.286;2023-12-20T06:28:52;11.73;;;3.63;;
13816;SDS011;6979;52.116;5.286;2023-12-20T06:31:19;10.77;;;3.60;;
13816;SDS011;6979;52.116;5.286;2023-12-20T06:33:45;13.80;;;4.37;;
13816;SDS011;6979;52.116;5.286;2023-12-20T06:36:14;13.37;;;4.60;;
13816;SDS011;6979;52.116;5.286;2023-12-20T06:38:41;10.07;;;4.67;;
13816;SDS011;6979;52.116;5.286;2023-12-20T06:41:10;9.27;;;3.80;;
13816;SDS011;6979;52.116;5.286;2023-12-20T06:43:39;10.67;;;4.30;;
13816;SDS011;6979;52.116;5.286;2023-12-20T06:46:06;11.80;;;3.73;;
13816;SDS011;6979;52.116;5.286;2023-12-20T06:48:32;7.13;;;3.30;;
13816;SDS011;6979;52.116;5.286;2023-12-20T06:50:59;8.87;;;3.53;;
13816;SDS011;6979;52.116;5.286;2023-12-20T06:53:27;9.80;;;3.53;;
13816;SDS011;6979;52.116;5.286;2023-12-20T06:55:54;7.47;;;3.80;;
13816;SDS011;6979;52.116;5.286;2023-12-20T06:58:23;12.10;;;3.97;;
13816;SDS011;6979;52.116;5.286;2023-12-20T07:00:53;11.53;;;3.93;;
13816;SDS011;6979;52.116;5.286;2023-12-20T07:03:20;10.50;;;4.67;;
13816;SDS011;6979;52.116;5.286;2023-12-20T07:05:47;12.30;;;4.57;;
13816;SDS011;6979;52.116;5.286;2023-12-20T07:08:13;11.63;;;3.77;;
13816;SDS011;6979;52.116;5.286;2023-12-20T07:10:40;15.87;;;4.50;;
13816;SDS011;6979;52.116;5.286;2023-12-20T07:13:07;13.10;;;4.10;;
13816;SDS011;6979;52.116;5.286;2023-12-20T07:15:36;8.87;;;3.33;;
13816;SDS011;6979;52.116;5.286;2023-12-20T07:18:03;8.10;;;3.33;;
13816;SDS011;6979;52.116;5.286;2023-12-20T07:20:31;9.40;;;3.73;;
13816;SDS011;6979;52.116;5.286;2023-12-20T07:22:58;12.03;;;3.83;;
13816;SDS011;6979;52.116;5.286;2023-12-20T07:25:25;15.80;;;3.77;;
13816;SDS011;6979;52.116;5.286;2023-12-20T07:27:52;12.27;;;3.83;;
13816;SDS011;6979;52.116;5.286;2023-12-20T07:30:22;6.50;;;3.30;;
13816;SDS011;6979;52.116;5.286;2023-12-20T07:32:50;8.10;;;3.07;;
13816;SDS011;6979;52.116;5.286;2023-12-20T07:35:17;11.07;;;3.60;;
13816;SDS011;6979;52.116;5.286;2023-12-20T07:37:44;12.23;;;3.80;;
13816;SDS011;6979;52.116;5.286;2023-12-20T07:40:11;13.27;;;3.77;;
13816;SDS011;6979;52.116;5.286;2023-12-20T07:42:38;11.70;;;4.03;;
13816;SDS011;6979;52.116;5.286;2023-12-20T07:45:05;11.80;;;3.60;;
13816;SDS011;6979;52.116;5.286;2023-12-20T07:47:35;10.73;;;3.37;;
13816;SDS011;6979;52.116;5.286;2023-12-20T07:50:04;13.10;;;4.47;;
13816;SDS011;6979;52.116;5.286;2023-12-20T07:52:32;9.77;;;3.70;;
13816;SDS011;6979;52.116;5.286;2023-12-20T07:54:58;12.43;;;3.80;;
13816;SDS011;6979;52.116;5.286;2023-12-20T07:57:28;12.67;;;4.20;;
13816;SDS011;6979;52.116;5.286;2023-12-20T07:59:55;9.33;;;3.90;;
13816;SDS011;6979;52.116;5.286;2023-12-20T08:02:22;6.93;;;3.80;;
13816;SDS011;6979;52.116;5.286;2023-12-20T08:04:49;10.80;;;4.77;;
13816;SDS011;6979;52.116;5.286;2023-12-20T08:07:17;12.43;;;3.53;;
13816;SDS011;6979;52.116;5.286;2023-12-20T08:09:44;14.67;;;4.40;;
13816;SDS011;6979;52.116;5.286;2023-12-20T08:12:10;13.03;;;4.00;;
13816;SDS011;6979;52.116;5.286;2023-12-20T08:14:40;13.40;;;4.40;;
13816;SDS011;6979;52.116;5.286;2023-12-20T08:17:07;10.63;;;3.87;;
13816;SDS011;6979;52.116;5.286;2023-12-20T08:19:34;13.43;;;4.03;;
13816;SDS011;6979;52.116;5.286;2023-12-20T08:22:01;16.73;;;4.13;;
13816;SDS011;6979;52.116;5.286;2023-12-20T08:24:30;11.40;;;3.60;;
13816;SDS011;6979;52.116;5.286;2023-12-20T08:27:00;9.43;;;3.43;;
13816;SDS011;6979;52.116;5.286;2023-12-20T08:29:27;14.43;;;4.60;;
13816;SDS011;6979;52.116;5.286;2023-12-20T08:31:54;13.40;;;3.40;;
13816;SDS011;6979;52.116;5.286;2023-12-20T08:34:21;12.33;;;3.80;;
13816;SDS011;6979;52.116;5.286;2023-12-20T08:36:48;8.60;;;3.33;;
13816;SDS011;6979;52.116;5.286;2023-12-20T08:39:16;10.07;;;4.03;;
13816;SDS011;6979;52.116;5.286;2023-12-20T08:41:44;8.03;;;4.00;;
13816;SDS011;6979;52.116;5.286;2023-12-20T08:44:11;12.30;;;3.43;;
13816;SDS011;6979;52.116;5.286;2023-12-20T08:46:38;8.90;;;3.93;;
13816;SDS011;6979;52.116;5.286;2023-12-20T08:49:07;7.90;;;3.90;;
13816;SDS011;6979;52.116;5.286;2023-12-20T08:51:35;8.63;;;4.43;;
13816;SDS011;6979;52.116;5.286;2023-12-20T08:54:05;16.53;;;4.60;;
13816;SDS011;6979;52.116;5.286;2023-12-20T08:56:33;12.17;;;3.87;;
13816;SDS011;6979;52.116;5.286;2023-12-20T08:59:01;7.93;;;3.23;;
13816;SDS011;6979;52.116;5.286;2023-12-20T09:01:30;13.33;;;4.20;;
13816;SDS011;6979;52.116;5.286;2023-12-20T09:03:59;11.17;;;4.27;;
13816;SDS011;6979;52.116;5.286;2023-12-20T09:06:26;8.33;;;3.17;;
13816;SDS011;6979;52.116;5.286;2023-12-20T09:08:59;15.13;;;4.70;;
13816;SDS011;6979;52.116;5.286;2023-12-20T09:11:26;12.17;;;3.43;;
13816;SDS011;6979;52.116;5.286;2023-12-20T09:13:53;9.30;;;3.77;;
13816;SDS011;6979;52.116;5.286;2023-12-20T09:16:23;11.20;;;3.67;;
13816;SDS011;6979;52.116;5.286;2023-12-20T09:18:50;10.27;;;3.67;;
13816;SDS011;6979;52.116;5.286;2023-12-20T09:21:17;9.80;;;3.53;;
13816;SDS011;6979;52.116;5.286;2023-12-20T09:23:44;10.33;;;3.50;;
13816;SDS011;6979;52.116;5.286;2023-12-20T09:26:11;6.60;;;3.53;;
13816;SDS011;6979;52.116;5.286;2023-12-20T09:28:38;11.03;;;3.00;;
13816;SDS011;6979;52.116;5.286;2023-12-20T09:31:08;12.97;;;3.73;;
13816;SDS011;6979;52.116;5.286;2023-12-20T09:33:36;13.90;;;3.70;;
13816;SDS011;6979;52.116;5.286;2023-12-20T09:36:08;8.60;;;2.87;;
13816;SDS011;6979;52.116;5.286;2023-12-20T09:38:35;8.70;;;2.90;;
13816;SDS011;6979;52.116;5.286;2023-12-20T09:41:02;11.80;;;4.50;;
13816;SDS011;6979;52.116;5.286;2023-12-20T09:43:30;10.43;;;4.07;;
13816;SDS011;6979;52.116;5.286;2023-12-20T09:45:58;13.40;;;3.50;;
13816;SDS011;6979;52.116;5.286;2023-12-20T09:48:28;11.07;;;3.73;;
13816;SDS011;6979;52.116;5.286;2023-12-20T09:50:58;10.13;;;3.70;;
13816;SDS011;6979;52.116;5.286;2023-12-20T09:53:28;12.30;;;3.37;;
13816;SDS011;6979;52.116;5.286;2023-12-20T09:55:57;8.27;;;3.57;;
13816;SDS011;6979;52.116;5.286;2023-12-20T09:58:26;9.20;;;3.60;;
13816;SDS011;6979;52.116;5.286;2023-12-20T10:00:52;7.10;;;3.30;;
13816;SDS011;6979;52.116;5.286;2023-12-20T10:03:21;11.43;;;3.53;;
13816;SDS011;6979;52.116;5.286;2023-12-20T10:05:51;10.17;;;3.90;;
13816;SDS011;6979;52.116;5.286;2023-12-20T10:08:24;12.73;;;3.33;;
13816;SDS011;6979;52.116;5.286;2023-12-20T10:10:50;11.90;;;3.87;;
13816;SDS011;6979;52.116;5.286;2023-12-20T10:13:17;9.20;;;3.30;;
13816;SDS011;6979;52.116;5.286;2023-12-20T10:15:44;7.50;;;3.47;;
13816;SDS011;6979;52.116;5.286;2023-12-20T10:18:11;8.37;;;3.43;;
13816;SDS011;6979;52.116;5.286;2023-12-20T10:20:39;16.20;;;4.33;;
13816;SDS011;6979;52.116;5.286;2023-12-20T10:23:07;13.13;;;3.50;;
13816;SDS011;6979;52.116;5.286;2023-12-20T10:25:38;9.73;;;3.63;;
13816;SDS011;6979;52.116;5.286;2023-12-20T10:28:10;9.63;;;3.50;;
13816;SDS011;6979;52.116;5.286;2023-12-20T10:30:38;6.60;;;2.90;;
13816;SDS011;6979;52.116;5.286;2023-12-20T10:33:06;7.10;;;2.77;;
13816;SDS011;6979;52.116;5.286;2023-12-20T10:35:33;14.23;;;3.93;;
13816;SDS011;6979;52.116;5.286;2023-12-20T10:38:02;11.93;;;4.50;;
13816;SDS011;6979;52.116;5.286;2023-12-20T10:40:31;10.03;;;3.33;;
13816;SDS011;6979;52.116;5.286;2023-12-20T10:43:04;8.43;;;3.63;;
13816;SDS011;6979;52.116;5.286;2023-12-20T10:45:31;7.77;;;3.20;;
13816;SDS011;6979;52.116;5.286;2023-12-20T10:47:58;8.57;;;3.40;;
13816;SDS011;6979;52.116;5.286;2023-12-20T10:50:26;10.67;;;3.13;;
13816;SDS011;6979;52.116;5.286;2023-12-20T10:52:56;10.43;;;3.87;;
13816;SDS011;6979;52.116;5.286;2023-12-20T10:55:24;11.40;;;3.63;;
13816;SDS011;6979;52.116;5.286;2023-12-20T10:57:51;7.20;;;2.53;;
13816;SDS011;6979;52.116;5.286;2023-12-20T11:00:20;6.77;;;2.73;;
13816;SDS011;6979;52.116;5.286;2023-12-20T11:02:49;11.40;;;3.17;;
13816;SDS011;6979;52.116;5.286;2023-12-20T11:05:21;8.00;;;3.23;;
13816;SDS011;6979;52.116;5.286;2023-12-20T11:07:54;7.33;;;2.67;;
13816;SDS011;6979;52.116;5.286;2023-12-20T11:10:29;6.77;;;3.27;;
13816;SDS011;6979;52.116;5.286;2023-12-20T11:12:59;12.63;;;3.67;;
13816;SDS011;6979;52.116;5.286;2023-12-20T11:15:43;10.37;;;3.53;;
13816;SDS011;6979;52.116;5.286;2023-12-20T11:18:11;8.73;;;3.57;;
13816;SDS011;6979;52.116;5.286;2023-12-20T11:20:38;9.47;;;4.17;;
13816;SDS011;6979;52.116;5.286;2023-12-20T11:23:06;9.43;;;2.87;;
13816;SDS011;6979;52.116;5.286;2023-12-20T11:25:45;8.77;;;3.10;;
13816;SDS011;6979;52.116;5.286;2023-12-20T11:28:13;12.17;;;2.93;;
13816;SDS011;6979;52.116;5.286;2023-12-20T11:30:47;12.00;;;3.20;;
13816;SDS011;6979;52.116;5.286;2023-12-20T11:33:16;10.30;;;3.27;;
13816;SDS011;6979;52.116;5.286;2023-12-20T11:35:47;9.37;;;2.93;;
13816;SDS011;6979;52.116;5.286;2023-12-20T11:38:14;7.27;;;3.13;;
13816;SDS011;6979;52.116;5.286;2023-12-20T11:40:41;8.93;;;3.77;;
13816;SDS011;6979;52.116;5.286;2023-12-20T11:43:08;11.13;;;3.30;;
13816;SDS011;6979;52.116;5.286;2023-12-20T11:45:35;5.17;;;3.10;;
13816;SDS011;6979;52.116;5.286;2023-12-20T11:48:04;8.07;;;2.83;;
13816;SDS011;6979;52.116;5.286;2023-12-20T11:50:33;7.67;;;2.67;;
13816;SDS011;6979;52.116;5.286;2023-12-20T11:53:03;10.37;;;3.43;;
13816;SDS011;6979;52.116;5.286;2023-12-20T11:55:30;8.23;;;2.63;;
13816;SDS011;6979;52.116;5.286;2023-12-20T11:57:57;9.17;;;3.07;;
13816;SDS011;6979;52.116;5.286;2023-12-20T12:00:24;8.03;;;2.73;;
13816;SDS011;6979;52.116;5.286;2023-12-20T12:02:57;10.33;;;3.77;;
13816;SDS011;6979;52.116;5.286;2023-12-20T12:05:26;8.37;;;3.07;;
13816;SDS011;6979;52.116;5.286;2023-12-20T12:07:53;10.20;;;3.10;;
13816;SDS011;6979;52.116;5.286;2023-12-20T12:10:20;7.43;;;3.20;;
13816;SDS011;6979;52.116;5.286;2023-12-20T12:12:46;8.80;;;3.37;;
13816;SDS011;6979;52.116;5.286;2023-12-20T12:15:14;7.43;;;2.60;;
13816;SDS011;6979;52.116;5.286;2023-12-20T12:17:41;5.97;;;3.03;;
13816;SDS011;6979;52.116;5.286;2023-12-20T12:20:10;8.10;;;3.20;;
13816;SDS011;6979;52.116;5.286;2023-12-20T12:22:39;5.43;;;2.47;;
13816;SDS011;6979;52.116;5.286;2023-12-20T12:25:09;7.10;;;3.77;;
13816;SDS011;6979;52.116;5.286;2023-12-20T12:27:39;12.83;;;4.00;;
13816;SDS011;6979;52.116;5.286;2023-12-20T12:30:06;10.90;;;2.90;;
13816;SDS011;6979;52.116;5.286;2023-12-20T12:32:34;12.77;;;3.73;;
13816;SDS011;6979;52.116;5.286;2023-12-20T12:35:04;9.70;;;3.10;;
13816;SDS011;6979;52.116;5.286;2023-12-20T12:37:35;8.03;;;3.30;;
13816;SDS011;6979;52.116;5.286;2023-12-20T12:40:07;9.77;;;3.57;;
13816;SDS011;6979;52.116;5.286;2023-12-20T12:42:36;10.77;;;3.03;;
13816;SDS011;6979;52.116;5.286;2023-12-20T12:45:03;7.77;;;3.03;;
13816;SDS011;6979;52.116;5.286;2023-12-20T12:47:31;11.57;;;3.73;;
13816;SDS011;6979;52.116;5.286;2023-12-20T12:49:59;8.87;;;3.10;;
13816;SDS011;6979;52.116;5.286;2023-12-20T12:52:27;5.60;;;3.13;;
13816;SDS011;6979;52.116;5.286;2023-12-20T12:54:53;6.50;;;2.87;;
13816;SDS011;6979;52.116;5.286;2023-12-20T12:57:21;8.33;;;3.40;;
13816;SDS011;6979;52.116;5.286;2023-12-20T12:59:49;9.03;;;3.13;;
13816;SDS011;6979;52.116;5.286;2023-12-20T13:02:16;10.77;;;3.90;;
13816;SDS011;6979;52.116;5.286;2023-12-20T13:04:43;9.10;;;3.23;;
13816;SDS011;6979;52.116;5.286;2023-12-20T13:07:10;15.23;;;3.13;;
13816;SDS011;6979;52.116;5.286;2023-12-20T13:09:38;6.73;;;2.77;;
13816;SDS011;6979;52.116;5.286;2023-12-20T13:12:08;8.93;;;3.27;;
13816;SDS011;6979;52.116;5.286;2023-12-20T13:14:36;7.70;;;2.90;;
13816;SDS011;6979;52.116;5.286;2023-12-20T13:17:03;11.57;;;3.03;;
13816;SDS011;6979;52.116;5.286;2023-12-20T13:19:31;9.13;;;2.67;;
13816;SDS011;6979;52.116;5.286;2023-12-20T13:21:58;12.57;;;3.03;;
13816;SDS011;6979;52.116;5.286;2023-12-20T13:24:25;9.50;;;2.87;;
13816;SDS011;6979;52.116;5.286;2023-12-20T13:27:02;6.17;;;2.80;;
13816;SDS011;6979;52.116;5.286;2023-12-20T13:29:29;9.10;;;2.90;;
13816;SDS011;6979;52.116;5.286;2023-12-20T13:32:00;11.60;;;3.17;;
13816;SDS011;6979;52.116;5.286;2023-12-20T13:34:25;7.63;;;3.00;;
13816;SDS011;6979;52.116;5.286;2023-12-20T13:36:52;7.60;;;3.27;;
13816;SDS011;6979;52.116;5.286;2023-12-20T13:39:19;6.40;;;2.87;;
13816;SDS011;6979;52.116;5.286;2023-12-20T13:41:47;6.50;;;2.70;;
13816;SDS011;6979;52.116;5.286;2023-12-20T13:44:14;15.67;;;3.00;;
13816;SDS011;6979;52.116;5.286;2023-12-20T13:46:41;8.30;;;2.60;;
13816;SDS011;6979;52.116;5.286;2023-12-20T13:49:09;7.47;;;2.93;;
13816;SDS011;6979;52.116;5.286;2023-12-20T13:51:37;7.30;;;2.73;;
13816;SDS011;6979;52.116;5.286;2023-12-20T13:54:04;7.17;;;2.77;;
13816;SDS011;6979;52.116;5.286;2023-12-20T13:56:31;10.10;;;3.37;;
13816;SDS011;6979;52.116;5.286;2023-12-20T13:58:59;10.33;;;3.40;;
13816;SDS011;6979;52.116;5.286;2023-12-20T14:01:25;7.87;;;3.30;;
13816;SDS011;6979;52.116;5.286;2023-12-20T14:03:52;9.53;;;3.03;;
13816;SDS011;6979;52.116;5.286;2023-12-20T14:06:20;8.30;;;3.03;;
13816;SDS011;6979;52.116;5.286;2023-12-20T14:08:47;9.93;;;3.77;;
13816;SDS011;6979;52.116;5.286;2023-12-20T14:11:14;6.97;;;2.70;;
13816;SDS011;6979;52.116;5.286;2023-12-20T14:13:41;11.40;;;3.53;;
13816;SDS011;6979;52.116;5.286;2023-12-20T14:16:08;7.80;;;4.20;;
13816;SDS011;6979;52.116;5.286;2023-12-20T14:18:36;15.10;;;8.70;;
13816;SDS011;6979;52.116;5.286;2023-12-20T14:21:05;8.77;;;4.30;;
13816;SDS011;6979;52.116;5.286;2023-12-20T14:23:36;7.87;;;2.93;;
13816;SDS011;6979;52.116;5.286;2023-12-20T14:26:03;12.73;;;3.10;;
13816;SDS011;6979;52.116;5.286;2023-12-20T14:28:30;10.13;;;3.40;;
13816;SDS011;6979;52.116;5.286;2023-12-20T14:30:57;7.67;;;3.00;;
13816;SDS011;6979;52.116;5.286;2023-12-20T14:33:26;6.10;;;2.97;;
13816;SDS011;6979;52.116;5.286;2023-12-20T14:35:56;7.63;;;3.03;;
13816;SDS011;6979;52.116;5.286;2023-12-20T14:38:26;9.77;;;2.77;;
13816;SDS011;6979;52.116;5.286;2023-12-20T14:40:54;6.67;;;3.00;;
13816;SDS011;6979;52.116;5.286;2023-12-20T14:43:21;9.03;;;2.83;;
13816;SDS011;6979;52.116;5.286;2023-12-20T14:45:48;7.53;;;2.87;;
13816;SDS011;6979;52.116;5.286;2023-12-20T14:48:16;9.87;;;3.63;;
13816;SDS011;6979;52.116;5.286;2023-12-20T14:50:43;8.77;;;3.20;;
13816;SDS011;6979;52.116;5.286;2023-12-20T14:53:12;10.70;;;3.30;;
13816;SDS011;6979;52.116;5.286;2023-12-20T14:55:40;6.57;;;2.53;;
13816;SDS011;6979;52.116;5.286;2023-12-20T14:58:11;9.07;;;2.90;;
13816;SDS011;6979;52.116;5.286;2023-12-20T15:00:41;9.13;;;2.70;;